Terminal Aerodrome Forecast
Issued by NWS

Home | Current Version | Previous Version | Text Only | Print | Product List | Glossary On
Versions: 1 2 3 4 5 6 7 8 9 10 11 12 13 14 15 16 17
602
FTUS41 KAKQ 281759 CCA
TAFPHF
TAF COR
KPHF 281759Z 2818/2918 22009KT P6SM BKN070
     FM282000 21008KT 4SM SHRA VCTS OVC060CB
     FM290000 22006KT 4SM SHRA OVC070
     FM290900 25007KT 4SM SHRA OVC012
     FM291400 31006KT 4SM SHRA OVC015
     FM291600 33008KT 6SM -SHRA BKN020=

USA.gov is the U.S. government's official web portal to all federal, state and local government web resources and services.